sensor_id;sensor_type;location;lat;lon;timestamp;P1;durP1;ratioP1;P2;durP2;ratioP2
22955;SDS011;40888;48.148;11.526;2023-11-21T00:01:42;14.73;;;2.97;;
22955;SDS011;40888;48.148;11.526;2023-11-21T00:04:08;8.80;;;2.90;;
22955;SDS011;40888;48.148;11.526;2023-11-21T00:06:34;7.57;;;2.53;;
22955;SDS011;40888;48.148;11.526;2023-11-21T00:09:00;9.13;;;2.90;;
22955;SDS011;40888;48.148;11.526;2023-11-21T00:11:27;5.40;;;2.30;;
22955;SDS011;40888;48.148;11.526;2023-11-21T00:13:54;7.93;;;2.57;;
22955;SDS011;40888;48.148;11.526;2023-11-21T00:16:20;6.63;;;2.53;;
22955;SDS011;40888;48.148;11.526;2023-11-21T00:18:47;7.87;;;2.57;;
22955;SDS011;40888;48.148;11.526;2023-11-21T00:21:13;8.50;;;2.47;;
22955;SDS011;40888;48.148;11.526;2023-11-21T00:23:39;7.67;;;2.00;;
22955;SDS011;40888;48.148;11.526;2023-11-21T00:26:06;7.87;;;2.27;;
22955;SDS011;40888;48.148;11.526;2023-11-21T00:28:32;9.23;;;2.30;;
22955;SDS011;40888;48.148;11.526;2023-11-21T00:30:58;7.67;;;2.13;;
22955;SDS011;40888;48.148;11.526;2023-11-21T00:33:24;8.43;;;2.70;;
22955;SDS011;40888;48.148;11.526;2023-11-21T00:35:50;5.83;;;2.20;;
22955;SDS011;40888;48.148;11.526;2023-11-21T00:38:16;10.77;;;2.30;;
22955;SDS011;40888;48.148;11.526;2023-11-21T00:40:45;4.03;;;2.10;;
22955;SDS011;40888;48.148;11.526;2023-11-21T00:43:11;7.17;;;2.23;;
22955;SDS011;40888;48.148;11.526;2023-11-21T00:45:37;9.60;;;2.80;;
22955;SDS011;40888;48.148;11.526;2023-11-21T00:48:05;7.60;;;2.13;;
22955;SDS011;40888;48.148;11.526;2023-11-21T00:50:33;4.87;;;1.63;;
22955;SDS011;40888;48.148;11.526;2023-11-21T00:52:59;6.43;;;1.73;;
22955;SDS011;40888;48.148;11.526;2023-11-21T00:55:27;6.20;;;1.63;;
22955;SDS011;40888;48.148;11.526;2023-11-21T00:57:53;5.80;;;1.80;;
22955;SDS011;40888;48.148;11.526;2023-11-21T01:00:19;6.63;;;2.00;;
22955;SDS011;40888;48.148;11.526;2023-11-21T01:02:45;7.00;;;1.77;;
22955;SDS011;40888;48.148;11.526;2023-11-21T01:05:12;3.30;;;1.40;;
22955;SDS011;40888;48.148;11.526;2023-11-21T01:07:38;6.47;;;1.73;;
22955;SDS011;40888;48.148;11.526;2023-11-21T01:10:04;3.50;;;1.90;;
22955;SDS011;40888;48.148;11.526;2023-11-21T01:12:34;5.17;;;1.70;;
22955;SDS011;40888;48.148;11.526;2023-11-21T01:15:01;2.67;;;1.50;;
22955;SDS011;40888;48.148;11.526;2023-11-21T01:17:28;4.47;;;1.70;;
22955;SDS011;40888;48.148;11.526;2023-11-21T01:19:54;3.43;;;1.63;;
22955;SDS011;40888;48.148;11.526;2023-11-21T01:22:21;7.23;;;2.33;;
22955;SDS011;40888;48.148;11.526;2023-11-21T01:24:51;9.73;;;2.70;;
22955;SDS011;40888;48.148;11.526;2023-11-21T01:27:17;8.97;;;2.40;;
22955;SDS011;40888;48.148;11.526;2023-11-21T01:29:43;11.77;;;2.53;;
22955;SDS011;40888;48.148;11.526;2023-11-21T01:32:09;5.77;;;1.70;;
22955;SDS011;40888;48.148;11.526;2023-11-21T01:34:36;4.30;;;2.00;;
22955;SDS011;40888;48.148;11.526;2023-11-21T01:37:02;7.73;;;2.07;;
22955;SDS011;40888;48.148;11.526;2023-11-21T01:39:30;7.23;;;2.53;;
22955;SDS011;40888;48.148;11.526;2023-11-21T01:41:57;6.67;;;2.60;;
22955;SDS011;40888;48.148;11.526;2023-11-21T01:44:23;6.07;;;2.33;;
22955;SDS011;40888;48.148;11.526;2023-11-21T01:46:50;6.77;;;2.33;;
22955;SDS011;40888;48.148;11.526;2023-11-21T01:49:16;8.70;;;3.20;;
22955;SDS011;40888;48.148;11.526;2023-11-21T01:51:47;7.43;;;2.80;;
22955;SDS011;40888;48.148;11.526;2023-11-21T01:54:17;8.27;;;2.90;;
22955;SDS011;40888;48.148;11.526;2023-11-21T01:56:47;6.67;;;2.47;;
22955;SDS011;40888;48.148;11.526;2023-11-21T01:59:14;6.93;;;2.50;;
22955;SDS011;40888;48.148;11.526;2023-11-21T02:01:41;7.93;;;2.33;;
22955;SDS011;40888;48.148;11.526;2023-11-21T02:04:07;7.70;;;2.27;;
22955;SDS011;40888;48.148;11.526;2023-11-21T02:06:33;7.23;;;2.37;;
22955;SDS011;40888;48.148;11.526;2023-11-21T02:08:59;9.37;;;2.40;;
22955;SDS011;40888;48.148;11.526;2023-11-21T02:11:25;9.83;;;2.13;;
22955;SDS011;40888;48.148;11.526;2023-11-21T02:13:52;6.70;;;2.20;;
22955;SDS011;40888;48.148;11.526;2023-11-21T02:16:19;4.90;;;2.20;;
22955;SDS011;40888;48.148;11.526;2023-11-21T02:18:46;6.30;;;1.97;;
22955;SDS011;40888;48.148;11.526;2023-11-21T02:21:13;8.00;;;2.43;;
22955;SDS011;40888;48.148;11.526;2023-11-21T02:23:39;9.47;;;2.23;;
22955;SDS011;40888;48.148;11.526;2023-11-21T02:26:09;3.83;;;2.27;;
22955;SDS011;40888;48.148;11.526;2023-11-21T02:28:36;7.27;;;2.20;;
22955;SDS011;40888;48.148;11.526;2023-11-21T02:31:03;8.67;;;2.80;;
22955;SDS011;40888;48.148;11.526;2023-11-21T02:33:30;8.97;;;2.37;;
22955;SDS011;40888;48.148;11.526;2023-11-21T02:36:00;5.80;;;2.30;;
22955;SDS011;40888;48.148;11.526;2023-11-21T02:38:26;5.20;;;1.60;;
22955;SDS011;40888;48.148;11.526;2023-11-21T02:40:52;5.03;;;2.20;;
22955;SDS011;40888;48.148;11.526;2023-11-21T02:43:18;7.47;;;2.00;;
22955;SDS011;40888;48.148;11.526;2023-11-21T02:45:44;5.27;;;1.73;;
22955;SDS011;40888;48.148;11.526;2023-11-21T02:48:10;7.87;;;2.20;;
22955;SDS011;40888;48.148;11.526;2023-11-21T02:50:36;7.10;;;2.43;;
22955;SDS011;40888;48.148;11.526;2023-11-21T02:53:03;7.07;;;1.93;;
22955;SDS011;40888;48.148;11.526;2023-11-21T02:55:31;7.17;;;2.33;;
22955;SDS011;40888;48.148;11.526;2023-11-21T02:58:00;7.63;;;2.33;;
22955;SDS011;40888;48.148;11.526;2023-11-21T03:00:26;4.27;;;2.00;;
22955;SDS011;40888;48.148;11.526;2023-11-21T03:02:52;12.70;;;2.77;;
22955;SDS011;40888;48.148;11.526;2023-11-21T03:05:19;7.70;;;2.40;;
22955;SDS011;40888;48.148;11.526;2023-11-21T03:07:45;6.87;;;2.33;;
22955;SDS011;40888;48.148;11.526;2023-11-21T03:10:11;10.47;;;2.83;;
22955;SDS011;40888;48.148;11.526;2023-11-21T03:12:37;7.50;;;2.77;;
22955;SDS011;40888;48.148;11.526;2023-11-21T03:15:06;8.97;;;2.73;;
22955;SDS011;40888;48.148;11.526;2023-11-21T03:17:33;8.47;;;3.00;;
22955;SDS011;40888;48.148;11.526;2023-11-21T03:20:00;7.27;;;2.50;;
22955;SDS011;40888;48.148;11.526;2023-11-21T03:22:26;10.07;;;2.63;;
22955;SDS011;40888;48.148;11.526;2023-11-21T03:24:52;7.43;;;2.00;;
22955;SDS011;40888;48.148;11.526;2023-11-21T03:27:18;7.23;;;2.30;;
22955;SDS011;40888;48.148;11.526;2023-11-21T03:29:44;5.57;;;2.17;;
22955;SDS011;40888;48.148;11.526;2023-11-21T03:32:11;8.57;;;2.33;;
22955;SDS011;40888;48.148;11.526;2023-11-21T03:34:52;8.20;;;2.47;;
22955;SDS011;40888;48.148;11.526;2023-11-21T03:37:19;5.67;;;1.93;;
22955;SDS011;40888;48.148;11.526;2023-11-21T03:39:46;4.57;;;1.77;;
22955;SDS011;40888;48.148;11.526;2023-11-21T03:42:12;5.87;;;2.07;;
22955;SDS011;40888;48.148;11.526;2023-11-21T03:44:38;6.33;;;2.17;;
22955;SDS011;40888;48.148;11.526;2023-11-21T03:47:04;4.23;;;1.60;;
22955;SDS011;40888;48.148;11.526;2023-11-21T03:49:30;5.37;;;1.80;;
22955;SDS011;40888;48.148;11.526;2023-11-21T03:51:56;7.03;;;2.10;;
22955;SDS011;40888;48.148;11.526;2023-11-21T03:54:22;4.73;;;1.67;;
22955;SDS011;40888;48.148;11.526;2023-11-21T03:56:48;6.33;;;1.70;;
22955;SDS011;40888;48.148;11.526;2023-11-21T03:59:15;8.00;;;2.57;;
22955;SDS011;40888;48.148;11.526;2023-11-21T04:01:41;6.50;;;1.83;;
22955;SDS011;40888;48.148;11.526;2023-11-21T04:04:07;5.67;;;1.80;;
22955;SDS011;40888;48.148;11.526;2023-11-21T04:06:33;6.10;;;1.53;;
22955;SDS011;40888;48.148;11.526;2023-11-21T04:09:01;6.50;;;1.70;;
22955;SDS011;40888;48.148;11.526;2023-11-21T04:11:29;5.23;;;1.83;;
22955;SDS011;40888;48.148;11.526;2023-11-21T04:13:55;5.60;;;2.10;;
22955;SDS011;40888;48.148;11.526;2023-11-21T04:16:21;8.73;;;1.70;;
22955;SDS011;40888;48.148;11.526;2023-11-21T04:18:47;5.47;;;1.67;;
22955;SDS011;40888;48.148;11.526;2023-11-21T04:21:13;4.50;;;1.87;;
22955;SDS011;40888;48.148;11.526;2023-11-21T04:23:40;4.43;;;1.83;;
22955;SDS011;40888;48.148;11.526;2023-11-21T04:26:06;5.60;;;1.30;;
22955;SDS011;40888;48.148;11.526;2023-11-21T04:28:32;3.67;;;1.53;;
22955;SDS011;40888;48.148;11.526;2023-11-21T04:30:58;4.37;;;1.10;;
22955;SDS011;40888;48.148;11.526;2023-11-21T04:33:24;4.13;;;1.47;;
22955;SDS011;40888;48.148;11.526;2023-11-21T04:35:50;6.37;;;1.50;;
22955;SDS011;40888;48.148;11.526;2023-11-21T04:38:16;6.37;;;1.70;;
22955;SDS011;40888;48.148;11.526;2023-11-21T04:40:44;6.43;;;1.50;;
22955;SDS011;40888;48.148;11.526;2023-11-21T04:43:10;3.00;;;1.30;;
22955;SDS011;40888;48.148;11.526;2023-11-21T04:45:36;5.37;;;1.73;;
22955;SDS011;40888;48.148;11.526;2023-11-21T04:48:03;7.53;;;1.80;;
22955;SDS011;40888;48.148;11.526;2023-11-21T04:50:30;5.30;;;1.50;;
22955;SDS011;40888;48.148;11.526;2023-11-21T04:52:56;2.53;;;1.27;;
22955;SDS011;40888;48.148;11.526;2023-11-21T04:55:22;3.23;;;1.33;;
22955;SDS011;40888;48.148;11.526;2023-11-21T04:57:48;2.10;;;1.23;;
22955;SDS011;40888;48.148;11.526;2023-11-21T05:00:14;3.07;;;1.30;;
22955;SDS011;40888;48.148;11.526;2023-11-21T05:02:41;7.10;;;2.30;;
22955;SDS011;40888;48.148;11.526;2023-11-21T05:05:07;7.80;;;1.67;;
22955;SDS011;40888;48.148;11.526;2023-11-21T05:07:35;3.03;;;1.53;;
22955;SDS011;40888;48.148;11.526;2023-11-21T05:10:01;6.07;;;1.47;;
22955;SDS011;40888;48.148;11.526;2023-11-21T05:12:37;10.37;;;2.10;;
22955;SDS011;40888;48.148;11.526;2023-11-21T05:15:06;3.73;;;1.63;;
22955;SDS011;40888;48.148;11.526;2023-11-21T05:17:36;5.60;;;1.80;;
22955;SDS011;40888;48.148;11.526;2023-11-21T05:20:06;3.00;;;1.70;;
22955;SDS011;40888;48.148;11.526;2023-11-21T05:22:34;4.13;;;1.30;;
22955;SDS011;40888;48.148;11.526;2023-11-21T05:25:01;4.43;;;2.00;;
22955;SDS011;40888;48.148;11.526;2023-11-21T05:27:28;5.67;;;1.83;;
22955;SDS011;40888;48.148;11.526;2023-11-21T05:29:55;8.80;;;2.10;;
22955;SDS011;40888;48.148;11.526;2023-11-21T05:32:22;4.70;;;1.93;;
22955;SDS011;40888;48.148;11.526;2023-11-21T05:34:48;5.10;;;1.90;;
22955;SDS011;40888;48.148;11.526;2023-11-21T05:37:14;3.00;;;1.63;;
22955;SDS011;40888;48.148;11.526;2023-11-21T05:39:40;4.23;;;1.70;;
22955;SDS011;40888;48.148;11.526;2023-11-21T05:42:06;2.27;;;1.33;;
22955;SDS011;40888;48.148;11.526;2023-11-21T05:44:34;3.57;;;1.40;;
22955;SDS011;40888;48.148;11.526;2023-11-21T05:47:00;3.93;;;1.73;;
22955;SDS011;40888;48.148;11.526;2023-11-21T05:49:26;4.30;;;1.80;;
22955;SDS011;40888;48.148;11.526;2023-11-21T05:51:53;3.63;;;1.90;;
22955;SDS011;40888;48.148;11.526;2023-11-21T05:54:19;5.00;;;1.50;;
22955;SDS011;40888;48.148;11.526;2023-11-21T05:56:45;3.03;;;1.47;;
22955;SDS011;40888;48.148;11.526;2023-11-21T05:59:12;4.87;;;1.53;;
22955;SDS011;40888;48.148;11.526;2023-11-21T06:01:38;3.47;;;1.70;;
22955;SDS011;40888;48.148;11.526;2023-11-21T06:04:05;3.37;;;1.43;;
22955;SDS011;40888;48.148;11.526;2023-11-21T06:06:33;5.27;;;1.83;;
22955;SDS011;40888;48.148;11.526;2023-11-21T06:08:59;3.47;;;1.73;;
22955;SDS011;40888;48.148;11.526;2023-11-21T06:11:25;3.60;;;1.70;;
22955;SDS011;40888;48.148;11.526;2023-11-21T06:13:51;6.63;;;2.50;;
22955;SDS011;40888;48.148;11.526;2023-11-21T06:16:18;3.13;;;1.73;;
22955;SDS011;40888;48.148;11.526;2023-11-21T06:18:45;3.87;;;1.70;;
22955;SDS011;40888;48.148;11.526;2023-11-21T06:21:11;4.33;;;1.50;;
22955;SDS011;40888;48.148;11.526;2023-11-21T06:23:38;3.37;;;1.70;;
22955;SDS011;40888;48.148;11.526;2023-11-21T06:26:04;4.43;;;1.70;;
22955;SDS011;40888;48.148;11.526;2023-11-21T06:28:31;2.73;;;1.60;;
22955;SDS011;40888;48.148;11.526;2023-11-21T06:30:57;3.33;;;1.40;;
22955;SDS011;40888;48.148;11.526;2023-11-21T06:33:23;5.80;;;1.83;;
22955;SDS011;40888;48.148;11.526;2023-11-21T06:35:52;6.93;;;2.10;;
22955;SDS011;40888;48.148;11.526;2023-11-21T06:38:18;4.50;;;1.70;;
22955;SDS011;40888;48.148;11.526;2023-11-21T06:40:44;4.00;;;1.90;;
22955;SDS011;40888;48.148;11.526;2023-11-21T06:43:11;4.30;;;1.90;;
22955;SDS011;40888;48.148;11.526;2023-11-21T06:45:37;5.83;;;2.03;;
22955;SDS011;40888;48.148;11.526;2023-11-21T06:48:03;3.43;;;1.80;;
22955;SDS011;40888;48.148;11.526;2023-11-21T06:50:29;1.90;;;1.40;;
22955;SDS011;40888;48.148;11.526;2023-11-21T06:52:56;3.67;;;1.80;;
22955;SDS011;40888;48.148;11.526;2023-11-21T06:55:22;3.80;;;1.63;;
22955;SDS011;40888;48.148;11.526;2023-11-21T06:57:48;3.03;;;1.50;;
22955;SDS011;40888;48.148;11.526;2023-11-21T07:00:15;5.10;;;1.80;;
22955;SDS011;40888;48.148;11.526;2023-11-21T07:02:42;1.77;;;1.20;;
22955;SDS011;40888;48.148;11.526;2023-11-21T07:05:08;4.47;;;1.77;;
22955;SDS011;40888;48.148;11.526;2023-11-21T07:07:35;4.00;;;1.47;;
22955;SDS011;40888;48.148;11.526;2023-11-21T07:10:02;3.90;;;1.33;;
22955;SDS011;40888;48.148;11.526;2023-11-21T07:12:31;4.10;;;1.60;;
22955;SDS011;40888;48.148;11.526;2023-11-21T07:14:58;3.03;;;1.30;;
22955;SDS011;40888;48.148;11.526;2023-11-21T07:17:24;1.33;;;0.87;;
22955;SDS011;40888;48.148;11.526;2023-11-21T07:19:50;3.40;;;1.50;;
22955;SDS011;40888;48.148;11.526;2023-11-21T07:22:16;2.93;;;1.13;;
22955;SDS011;40888;48.148;11.526;2023-11-21T07:24:49;1.53;;;1.03;;
22955;SDS011;40888;48.148;11.526;2023-11-21T07:27:18;4.60;;;1.47;;
22955;SDS011;40888;48.148;11.526;2023-11-21T07:29:44;3.90;;;1.70;;
22955;SDS011;40888;48.148;11.526;2023-11-21T07:32:10;4.20;;;1.30;;
22955;SDS011;40888;48.148;11.526;2023-11-21T07:34:38;2.13;;;1.20;;
22955;SDS011;40888;48.148;11.526;2023-11-21T07:37:04;3.53;;;1.50;;
22955;SDS011;40888;48.148;11.526;2023-11-21T07:39:30;1.70;;;1.20;;
22955;SDS011;40888;48.148;11.526;2023-11-21T07:41:56;3.43;;;1.30;;
22955;SDS011;40888;48.148;11.526;2023-11-21T07:44:23;5.67;;;1.60;;
22955;SDS011;40888;48.148;11.526;2023-11-21T07:46:49;3.93;;;1.50;;
22955;SDS011;40888;48.148;11.526;2023-11-21T07:49:15;2.50;;;1.60;;
22955;SDS011;40888;48.148;11.526;2023-11-21T07:51:42;2.33;;;1.50;;
22955;SDS011;40888;48.148;11.526;2023-11-21T07:54:09;2.30;;;1.30;;
22955;SDS011;40888;48.148;11.526;2023-11-21T07:56:35;2.27;;;1.40;;
22955;SDS011;40888;48.148;11.526;2023-11-21T07:59:01;4.90;;;1.63;;
22955;SDS011;40888;48.148;11.526;2023-11-21T08:01:27;1.83;;;1.17;;
22955;SDS011;40888;48.148;11.526;2023-11-21T08:03:54;2.40;;;1.00;;
22955;SDS011;40888;48.148;11.526;2023-11-21T08:06:22;4.70;;;1.33;;
22955;SDS011;40888;48.148;11.526;2023-11-21T08:08:50;2.03;;;1.00;;
22955;SDS011;40888;48.148;11.526;2023-11-21T08:11:19;1.93;;;0.80;;
22955;SDS011;40888;48.148;11.526;2023-11-21T08:13:46;2.70;;;1.10;;
22955;SDS011;40888;48.148;11.526;2023-11-21T08:16:12;4.63;;;1.37;;
22955;SDS011;40888;48.148;11.526;2023-11-21T08:18:39;1.77;;;1.00;;
22955;SDS011;40888;48.148;11.526;2023-11-21T08:21:06;3.07;;;1.20;;
22955;SDS011;40888;48.148;11.526;2023-11-21T08:23:33;1.47;;;1.07;;
22955;SDS011;40888;48.148;11.526;2023-11-21T08:25:59;1.17;;;1.07;;
22955;SDS011;40888;48.148;11.526;2023-11-21T08:28:28;1.67;;;1.10;;
22955;SDS011;40888;48.148;11.526;2023-11-21T08:30:54;3.90;;;1.33;;
22955;SDS011;40888;48.148;11.526;2023-11-21T08:33:20;2.10;;;1.03;;
22955;SDS011;40888;48.148;11.526;2023-11-21T08:35:46;2.73;;;1.33;;
22955;SDS011;40888;48.148;11.526;2023-11-21T08:38:12;2.53;;;1.23;;
22955;SDS011;40888;48.148;11.526;2023-11-21T08:40:38;2.23;;;1.10;;
22955;SDS011;40888;48.148;11.526;2023-11-21T08:43:04;4.80;;;1.37;;
22955;SDS011;40888;48.148;11.526;2023-11-21T08:45:31;2.10;;;1.23;;
22955;SDS011;40888;48.148;11.526;2023-11-21T08:47:59;1.20;;;1.00;;
22955;SDS011;40888;48.148;11.526;2023-11-21T08:50:25;5.63;;;1.20;;
22955;SDS011;40888;48.148;11.526;2023-11-21T08:52:51;2.53;;;1.47;;
22955;SDS011;40888;48.148;11.526;2023-11-21T08:55:17;1.80;;;1.20;;
22955;SDS011;40888;48.148;11.526;2023-11-21T08:57:45;2.50;;;1.13;;
22955;SDS011;40888;48.148;11.526;2023-11-21T09:00:14;2.43;;;1.20;;
22955;SDS011;40888;48.148;11.526;2023-11-21T09:02:42;3.37;;;0.97;;
22955;SDS011;40888;48.148;11.526;2023-11-21T09:05:08;1.57;;;1.07;;
22955;SDS011;40888;48.148;11.526;2023-11-21T09:07:38;2.30;;;1.30;;
22955;SDS011;40888;48.148;11.526;2023-11-21T09:10:05;0.70;;;0.70;;
22955;SDS011;40888;48.148;11.526;2023-11-21T09:12:34;2.30;;;1.47;;
22955;SDS011;40888;48.148;11.526;2023-11-21T09:15:04;2.67;;;1.03;;
22955;SDS011;40888;48.148;11.526;2023-11-21T09:17:30;1.90;;;1.03;;
22955;SDS011;40888;48.148;11.526;2023-11-21T09:19:56;4.00;;;1.27;;
22955;SDS011;40888;48.148;11.526;2023-11-21T09:22:22;2.33;;;1.40;;
22955;SDS011;40888;48.148;11.526;2023-11-21T09:24:50;3.20;;;1.30;;
22955;SDS011;40888;48.148;11.526;2023-11-21T09:27:16;4.00;;;1.27;;
22955;SDS011;40888;48.148;11.526;2023-11-21T09:29:42;1.80;;;0.90;;
22955;SDS011;40888;48.148;11.526;2023-11-21T09:32:08;4.80;;;1.30;;
22955;SDS011;40888;48.148;11.526;2023-11-21T09:34:37;2.73;;;1.33;;
22955;SDS011;40888;48.148;11.526;2023-11-21T09:37:04;5.03;;;1.67;;
22955;SDS011;40888;48.148;11.526;2023-11-21T09:39:33;2.63;;;1.23;;
22955;SDS011;40888;48.148;11.526;2023-11-21T09:47:26;3.60;;;1.10;;
22955;SDS011;40888;48.148;11.526;2023-11-21T09:49:53;4.27;;;1.37;;
22955;SDS011;40888;48.148;11.526;2023-11-21T09:52:27;5.10;;;1.43;;
22955;SDS011;40888;48.148;11.526;2023-11-21T09:54:53;3.50;;;1.30;;
22955;SDS011;40888;48.148;11.526;2023-11-21T09:57:22;1.53;;;1.00;;
22955;SDS011;40888;48.148;11.526;2023-11-21T09:59:51;4.00;;;1.60;;
22955;SDS011;40888;48.148;11.526;2023-11-21T10:02:27;2.17;;;1.43;;
22955;SDS011;40888;48.148;11.526;2023-11-21T10:04:55;5.83;;;1.50;;
22955;SDS011;40888;48.148;11.526;2023-11-21T10:07:22;1.60;;;1.07;;
22955;SDS011;40888;48.148;11.526;2023-11-21T10:09:48;2.00;;;1.40;;
22955;SDS011;40888;48.148;11.526;2023-11-21T10:12:16;2.10;;;0.97;;
22955;SDS011;40888;48.148;11.526;2023-11-21T10:14:45;2.40;;;1.30;;
22955;SDS011;40888;48.148;11.526;2023-11-21T10:17:12;2.17;;;1.00;;
22955;SDS011;40888;48.148;11.526;2023-11-21T10:19:41;2.30;;;1.30;;
22955;SDS011;40888;48.148;11.526;2023-11-21T10:22:07;3.37;;;1.00;;
22955;SDS011;40888;48.148;11.526;2023-11-21T10:24:34;3.60;;;1.20;;
22955;SDS011;40888;48.148;11.526;2023-11-21T10:27:01;4.07;;;1.70;;
22955;SDS011;40888;48.148;11.526;2023-11-21T10:29:31;2.00;;;1.30;;
22955;SDS011;40888;48.148;11.526;2023-11-21T10:32:01;1.30;;;1.20;;
22955;SDS011;40888;48.148;11.526;2023-11-21T10:34:27;1.77;;;1.30;;
22955;SDS011;40888;48.148;11.526;2023-11-21T10:36:53;4.17;;;1.57;;
22955;SDS011;40888;48.148;11.526;2023-11-21T10:39:23;2.97;;;1.43;;
22955;SDS011;40888;48.148;11.526;2023-11-21T10:41:52;2.00;;;1.53;;
22955;SDS011;40888;48.148;11.526;2023-11-21T10:44:19;2.40;;;1.50;;
22955;SDS011;40888;48.148;11.526;2023-11-21T10:46:47;5.90;;;1.50;;
22955;SDS011;40888;48.148;11.526;2023-11-21T10:49:16;3.00;;;1.50;;
22955;SDS011;40888;48.148;11.526;2023-11-21T10:51:46;2.67;;;1.50;;
22955;SDS011;40888;48.148;11.526;2023-11-21T10:54:17;3.57;;;1.73;;
22955;SDS011;40888;48.148;11.526;2023-11-21T10:56:43;4.00;;;1.60;;
22955;SDS011;40888;48.148;11.526;2023-11-21T10:59:09;4.23;;;1.63;;
22955;SDS011;40888;48.148;11.526;2023-11-21T11:01:41;1.97;;;1.17;;
22955;SDS011;40888;48.148;11.526;2023-11-21T11:04:08;4.67;;;1.83;;
22955;SDS011;40888;48.148;11.526;2023-11-21T11:06:44;2.60;;;2.07;;
22955;SDS011;40888;48.148;11.526;2023-11-21T11:09:11;4.23;;;1.80;;
22955;SDS011;40888;48.148;11.526;2023-11-21T11:11:41;4.10;;;1.70;;
22955;SDS011;40888;48.148;11.526;2023-11-21T11:14:12;2.90;;;1.60;;
22955;SDS011;40888;48.148;11.526;2023-11-21T11:16:39;4.10;;;1.60;;
22955;SDS011;40888;48.148;11.526;2023-11-21T11:19:06;3.90;;;1.70;;
22955;SDS011;40888;48.148;11.526;2023-11-21T11:26:50;1.57;;;1.40;;
22955;SDS011;40888;48.148;11.526;2023-11-21T11:34:31;2.60;;;1.70;;
22955;SDS011;40888;48.148;11.526;2023-11-21T11:39:38;4.10;;;1.60;;
22955;SDS011;40888;48.148;11.526;2023-11-21T11:42:07;2.97;;;1.70;;
22955;SDS011;40888;48.148;11.526;2023-11-21T11:47:29;4.47;;;1.83;;
22955;SDS011;40888;48.148;11.526;2023-11-21T11:50:03;3.70;;;1.80;;
22955;SDS011;40888;48.148;11.526;2023-11-21T11:55:06;2.97;;;1.77;;
22955;SDS011;40888;48.148;11.526;2023-11-21T11:57:33;3.63;;;1.80;;
22955;SDS011;40888;48.148;11.526;2023-11-21T12:02:59;2.90;;;1.93;;
22955;SDS011;40888;48.148;11.526;2023-11-21T12:05:28;3.97;;;1.80;;
22955;SDS011;40888;48.148;11.526;2023-11-21T12:07:59;1.50;;;1.40;;
22955;SDS011;40888;48.148;11.526;2023-11-21T12:12:54;2.60;;;1.23;;
22955;SDS011;40888;48.148;11.526;2023-11-21T12:15:20;1.60;;;1.23;;
22955;SDS011;40888;48.148;11.526;2023-11-21T12:17:47;2.23;;;1.50;;
22955;SDS011;40888;48.148;11.526;2023-11-21T12:20:14;2.83;;;1.60;;
22955;SDS011;40888;48.148;11.526;2023-11-21T12:22:52;1.93;;;1.50;;
22955;SDS011;40888;48.148;11.526;2023-11-21T12:25:18;2.97;;;1.50;;
22955;SDS011;40888;48.148;11.526;2023-11-21T12:27:46;2.03;;;1.50;;
22955;SDS011;40888;48.148;11.526;2023-11-21T12:30:14;3.00;;;1.40;;
22955;SDS011;40888;48.148;11.526;2023-11-21T12:32:47;1.57;;;1.47;;
22955;SDS011;40888;48.148;11.526;2023-11-21T12:35:13;2.63;;;1.50;;
22955;SDS011;40888;48.148;11.526;2023-11-21T12:37:41;1.37;;;1.23;;
22955;SDS011;40888;48.148;11.526;2023-11-21T12:40:10;2.93;;;1.40;;
22955;SDS011;40888;48.148;11.526;2023-11-21T12:42:40;2.50;;;1.40;;
22955;SDS011;40888;48.148;11.526;2023-11-21T12:45:09;3.50;;;1.60;;
22955;SDS011;40888;48.148;11.526;2023-11-21T12:47:43;1.67;;;1.20;;
22955;SDS011;40888;48.148;11.526;2023-11-21T12:50:09;1.77;;;0.97;;
22955;SDS011;40888;48.148;11.526;2023-11-21T12:52:42;1.40;;;1.20;;
22955;SDS011;40888;48.148;11.526;2023-11-21T12:55:12;2.40;;;1.60;;
22955;SDS011;40888;48.148;11.526;2023-11-21T12:57:41;2.13;;;1.40;;
22955;SDS011;40888;48.148;11.526;2023-11-21T13:00:08;3.97;;;1.40;;
22955;SDS011;40888;48.148;11.526;2023-11-21T13:02:38;1.10;;;1.00;;
22955;SDS011;40888;48.148;11.526;2023-11-21T13:05:07;2.83;;;1.37;;
22955;SDS011;40888;48.148;11.526;2023-11-21T13:07:43;2.40;;;1.70;;
22955;SDS011;40888;48.148;11.526;2023-11-21T13:10:12;3.90;;;1.90;;
22955;SDS011;40888;48.148;11.526;2023-11-21T13:12:45;2.87;;;1.83;;
22955;SDS011;40888;48.148;11.526;2023-11-21T13:15:16;3.10;;;2.00;;
22955;SDS011;40888;48.148;11.526;2023-11-21T13:17:46;3.93;;;2.30;;
22955;SDS011;40888;48.148;11.526;2023-11-21T13:20:12;3.80;;;2.30;;
22955;SDS011;40888;48.148;11.526;2023-11-21T13:22:45;4.53;;;3.03;;
22955;SDS011;40888;48.148;11.526;2023-11-21T13:25:11;3.93;;;2.90;;
22955;SDS011;40888;48.148;11.526;2023-11-21T13:27:39;3.53;;;3.10;;
22955;SDS011;40888;48.148;11.526;2023-11-21T13:30:08;4.00;;;3.13;;
22955;SDS011;40888;48.148;11.526;2023-11-21T13:32:35;4.43;;;2.90;;
22955;SDS011;40888;48.148;11.526;2023-11-21T13:35:01;11.00;;;4.50;;
22955;SDS011;40888;48.148;11.526;2023-11-21T13:37:27;3.43;;;2.53;;
22955;SDS011;40888;48.148;11.526;2023-11-21T13:39:55;3.40;;;2.33;;
22955;SDS011;40888;48.148;11.526;2023-11-21T13:42:22;2.07;;;1.97;;
22955;SDS011;40888;48.148;11.526;2023-11-21T13:44:56;2.10;;;2.00;;
22955;SDS011;40888;48.148;11.526;2023-11-21T13:47:22;3.37;;;1.90;;
22955;SDS011;40888;48.148;11.526;2023-11-21T13:49:54;1.87;;;1.50;;
22955;SDS011;40888;48.148;11.526;2023-11-21T13:52:20;1.60;;;1.50;;
22955;SDS011;40888;48.148;11.526;2023-11-21T13:54:51;3.03;;;1.33;;
22955;SDS011;40888;48.148;11.526;2023-11-21T13:57:18;1.30;;;1.20;;
22955;SDS011;40888;48.148;11.526;2023-11-21T13:59:45;1.47;;;0.97;;
22955;SDS011;40888;48.148;11.526;2023-11-21T14:02:11;1.13;;;1.00;;
22955;SDS011;40888;48.148;11.526;2023-11-21T14:04:43;1.10;;;0.80;;
22955;SDS011;40888;48.148;11.526;2023-11-21T14:07:19;1.47;;;1.00;;
22955;SDS011;40888;48.148;11.526;2023-11-21T14:09:51;1.93;;;1.13;;
22955;SDS011;40888;48.148;11.526;2023-11-21T14:12:18;1.53;;;1.40;;
22955;SDS011;40888;48.148;11.526;2023-11-21T14:14:44;2.87;;;1.10;;
22955;SDS011;40888;48.148;11.526;2023-11-21T14:17:13;1.93;;;1.60;;
22955;SDS011;40888;48.148;11.526;2023-11-21T14:19:40;1.30;;;1.03;;
22955;SDS011;40888;48.148;11.526;2023-11-21T14:22:09;1.20;;;0.97;;
22955;SDS011;40888;48.148;11.526;2023-11-21T14:24:35;0.70;;;0.70;;
22955;SDS011;40888;48.148;11.526;2023-11-21T14:27:02;0.80;;;0.80;;
22955;SDS011;40888;48.148;11.526;2023-11-21T14:29:28;1.20;;;1.10;;
22955;SDS011;40888;48.148;11.526;2023-11-21T14:31:55;1.23;;;1.10;;
22955;SDS011;40888;48.148;11.526;2023-11-21T14:34:23;0.90;;;0.90;;
22955;SDS011;40888;48.148;11.526;2023-11-21T14:36:49;1.60;;;1.50;;
22955;SDS011;40888;48.148;11.526;2023-11-21T14:39:16;1.30;;;1.20;;
22955;SDS011;40888;48.148;11.526;2023-11-21T14:41:51;1.27;;;1.17;;
22955;SDS011;40888;48.148;11.526;2023-11-21T14:44:18;1.10;;;1.10;;
22955;SDS011;40888;48.148;11.526;2023-11-21T14:46:45;2.80;;;2.07;;
22955;SDS011;40888;48.148;11.526;2023-11-21T14:49:14;2.37;;;2.10;;
22955;SDS011;40888;48.148;11.526;2023-11-21T14:51:49;1.90;;;1.80;;
22955;SDS011;40888;48.148;11.526;2023-11-21T14:54:48;1.87;;;1.73;;
22955;SDS011;40888;48.148;11.526;2023-11-21T14:57:24;1.60;;;1.50;;
22955;SDS011;40888;48.148;11.526;2023-11-21T14:59:52;1.87;;;1.70;;
22955;SDS011;40888;48.148;11.526;2023-11-21T15:02:22;1.80;;;1.70;;
22955;SDS011;40888;48.148;11.526;2023-11-21T15:05:09;1.40;;;1.40;;